Time;durP1;ratioP1;P1;durP2;ratioP2;P2;SDS_P1;SDS_P2;PMS_P1;PMS_P2;Temp;Humidity;BMP_temperature;BMP_pressure;BME280_temperature;BME280_humidity;BME280_pressure;Samples;Min_cycle;Max_cycle;Signal;HPM_P1;HPM_P2
2023/06/22 00:00:53;;;;;;;7.80;5.10;;;22.60;99.90;;;;;;5070829;28;20208;-54
2023/06/22 00:03:22;;;;;;;8.70;6.18;;;22.70;99.90;;;;;;5070978;28;20209;-56
2023/06/22 00:05:49;;;;;;;6.88;6.00;;;22.60;99.90;;;;;;5070471;28;20236;-54
2023/06/22 00:08:17;;;;;;;6.13;5.32;;;22.60;99.90;;;;;;5070692;28;20236;-53
2023/06/22 00:10:45;;;;;;;8.02;5.78;;;22.60;99.90;;;;;;5070736;28;20212;-53
2023/06/22 00:13:13;;;;;;;7.88;6.05;;;22.60;99.90;;;;;;5070793;28;20622;-54
2023/06/22 00:15:42;;;;;;;7.70;6.25;;;22.50;99.90;;;;;;5070497;28;20295;-55
2023/06/22 00:18:10;;;;;;;7.60;5.70;;;22.50;99.90;;;;;;5070693;28;20235;-54
2023/06/22 00:20:37;;;;;;;7.65;5.80;;;22.50;99.90;;;;;;5070673;28;20204;-54
2023/06/22 00:23:07;;;;;;;8.60;6.05;;;22.50;99.90;;;;;;5070315;28;20200;-55
2023/06/22 00:25:34;;;;;;;7.95;5.63;;;22.50;99.90;;;;;;5070199;28;20235;-54
2023/06/22 00:28:01;;;;;;;6.32;5.47;;;22.50;99.90;;;;;;5069903;28;20228;-54
2023/06/22 00:30:28;;;;;;;6.50;5.90;;;22.50;99.90;;;;;;5073120;28;20208;-55
2023/06/22 00:32:56;;;;;;;6.45;5.22;;;22.40;99.90;;;;;;5074125;28;20295;-54
2023/06/22 00:35:23;;;;;;;7.43;5.78;;;22.40;99.90;;;;;;5074233;28;20235;-53
2023/06/22 00:37:57;;;;;;;7.00;5.55;;;22.40;99.90;;;;;;5073520;28;20758;-53
2023/06/22 00:40:24;;;;;;;8.68;6.40;;;22.40;99.90;;;;;;5073704;28;20727;-55
2023/06/22 00:42:50;;;;;;;7.30;6.13;;;22.30;99.90;;;;;;5073645;28;20269;-56
2023/06/22 00:45:17;;;;;;;6.63;6.03;;;22.30;99.90;;;;;;5074150;28;20286;-55
2023/06/22 00:47:44;;;;;;;7.38;6.38;;;22.20;99.90;;;;;;5073550;28;20217;-54
2023/06/22 00:50:20;;;;;;;10.25;6.55;;;22.20;99.90;;;;;;5073512;28;20205;-54
2023/06/22 00:52:48;;;;;;;8.48;6.32;;;22.10;99.90;;;;;;5074281;28;20223;-55
2023/06/22 00:55:17;;;;;;;8.65;6.60;;;22.00;99.90;;;;;;5074276;28;20212;-54
2023/06/22 00:57:45;;;;;;;8.43;6.40;;;22.00;99.90;;;;;;5073879;28;20286;-54
2023/06/22 01:00:19;;;;;;;8.73;6.75;;;21.90;99.90;;;;;;5073984;28;20204;-54
2023/06/22 01:02:49;;;;;;;7.75;5.78;;;21.90;99.90;;;;;;5073967;28;20209;-55
2023/06/22 01:05:19;;;;;;;6.28;5.72;;;21.90;99.90;;;;;;5073503;28;20200;-54
2023/06/22 01:07:56;;;;;;;8.90;6.25;;;21.80;99.90;;;;;;5073228;28;20307;-55
2023/06/22 01:10:30;;;;;;;9.20;6.05;;;21.80;99.90;;;;;;5073703;28;20200;-55
2023/06/22 01:13:03;;;;;;;9.55;6.55;;;21.80;99.90;;;;;;5073660;28;20575;-54
2023/06/22 01:15:33;;;;;;;15.95;6.68;;;21.80;99.90;;;;;;5073649;28;20583;-55
2023/06/22 01:18:03;;;;;;;9.55;6.50;;;21.70;99.90;;;;;;5072795;28;20620;-54
2023/06/22 01:20:33;;;;;;;11.57;7.43;;;21.60;99.90;;;;;;5073425;28;20240;-55
2023/06/22 01:23:09;;;;;;;11.10;6.55;;;21.50;99.90;;;;;;5073517;28;20209;-54
2023/06/22 01:25:45;;;;;;;8.02;6.70;;;21.40;99.90;;;;;;5073920;28;20270;-55
2023/06/22 01:28:27;;;;;;;9.50;6.40;;;21.50;99.90;;;;;;5073672;28;20232;-53
2023/06/22 01:31:03;;;;;;;9.07;7.00;;;21.50;99.90;;;;;;5073418;28;20235;-53
2023/06/22 01:33:31;;;;;;;8.18;7.03;;;21.60;99.90;;;;;;5073230;28;20299;-55
2023/06/22 01:35:58;;;;;;;8.82;6.65;;;21.60;99.90;;;;;;5072446;28;20727;-56
2023/06/22 01:38:26;;;;;;;8.80;6.18;;;21.60;99.90;;;;;;5072738;28;20274;-54
2023/06/22 01:40:53;;;;;;;9.27;6.95;;;21.50;99.90;;;;;;5072427;28;20239;-54
2023/06/22 01:43:22;;;;;;;10.32;6.78;;;21.50;99.90;;;;;;5072628;28;20208;-56
2023/06/22 01:45:49;;;;;;;8.80;7.00;;;21.50;99.90;;;;;;5072843;28;20212;-54
2023/06/22 01:48:18;;;;;;;9.07;6.50;;;21.40;99.90;;;;;;5072638;28;20267;-53
2023/06/22 01:50:45;;;;;;;8.23;6.38;;;21.40;99.90;;;;;;5072577;28;20201;-54
2023/06/22 01:53:12;;;;;;;12.13;7.20;;;21.30;99.90;;;;;;5072508;28;20269;-54
2023/06/22 01:55:38;;;;;;;7.55;6.47;;;21.40;99.90;;;;;;5072305;28;20212;-57
2023/06/22 01:58:05;;;;;;;11.45;6.75;;;21.40;99.90;;;;;;5072307;28;20229;-54
2023/06/22 02:00:35;;;;;;;9.98;6.57;;;21.40;99.90;;;;;;5072654;28;20310;-53
2023/06/22 02:03:09;;;;;;;9.05;6.28;;;21.40;99.90;;;;;;5072541;28;20314;-53
2023/06/22 02:05:42;;;;;;;8.57;6.70;;;21.30;99.90;;;;;;5072502;28;20208;-53
2023/06/22 02:08:12;;;;;;;8.30;6.50;;;21.30;99.90;;;;;;5072134;28;20232;-55
2023/06/22 02:10:41;;;;;;;9.13;6.43;;;21.30;99.90;;;;;;5072560;28;20212;-54
2023/06/22 02:13:10;;;;;;;7.97;6.47;;;21.30;99.90;;;;;;5072143;28;20237;-54
2023/06/22 02:15:37;;;;;;;7.53;6.15;;;21.30;99.90;;;;;;5072056;28;20224;-56
2023/06/22 02:18:05;;;;;;;7.78;5.93;;;21.30;99.90;;;;;;5071826;28;20232;-54
2023/06/22 02:20:31;;;;;;;10.20;6.80;;;21.40;99.90;;;;;;5071908;28;20262;-55
2023/06/22 02:22:59;;;;;;;9.45;6.78;;;21.30;99.90;;;;;;5072170;28;20640;-53
2023/06/22 02:25:26;;;;;;;7.80;6.60;;;21.30;99.90;;;;;;5071859;28;20209;-55
2023/06/22 02:27:53;;;;;;;9.73;6.65;;;21.30;99.90;;;;;;5071326;28;20290;-55
2023/06/22 02:30:20;;;;;;;10.75;6.75;;;21.30;99.90;;;;;;5071927;28;20649;-54
2023/06/22 02:32:46;;;;;;;10.00;6.15;;;21.30;99.90;;;;;;5071733;28;20216;-53
2023/06/22 02:35:13;;;;;;;8.80;6.75;;;21.30;99.90;;;;;;5071575;28;20259;-54
2023/06/22 02:37:41;;;;;;;10.27;6.15;;;21.30;99.90;;;;;;5071657;28;20321;-53
2023/06/22 02:40:10;;;;;;;7.90;6.53;;;21.30;99.90;;;;;;5071905;28;20322;-54
2023/06/22 02:42:37;;;;;;;8.57;6.28;;;21.30;99.90;;;;;;5071671;28;20250;-53
2023/06/22 02:45:04;;;;;;;8.90;6.93;;;21.30;99.90;;;;;;5071655;28;20209;-55
2023/06/22 02:47:31;;;;;;;7.47;6.63;;;21.20;99.90;;;;;;5071129;28;20217;-55
2023/06/22 02:49:58;;;;;;;8.30;6.20;;;21.30;99.90;;;;;;5071523;28;20213;-55
2023/06/22 02:52:24;;;;;;;7.57;6.50;;;21.20;99.90;;;;;;5070873;28;20205;-54
2023/06/22 02:54:51;;;;;;;7.05;6.35;;;21.20;99.90;;;;;;5071438;28;20615;-54
2023/06/22 02:57:19;;;;;;;7.85;6.80;;;21.10;99.90;;;;;;5070851;28;20212;-54
2023/06/22 02:59:46;;;;;;;9.00;6.03;;;21.00;99.90;;;;;;5071236;28;20262;-54
2023/06/22 03:02:13;;;;;;;9.15;6.25;;;20.90;99.90;;;;;;5071157;28;20205;-54
2023/06/22 03:04:39;;;;;;;6.70;6.10;;;20.80;99.90;;;;;;5071386;28;20400;-54
2023/06/22 03:07:06;;;;;;;6.90;6.15;;;20.80;99.90;;;;;;5070776;28;20231;-55
2023/06/22 03:09:33;;;;;;;7.95;6.13;;;20.70;99.90;;;;;;5071052;28;20283;-54
2023/06/22 03:12:00;;;;;;;6.75;6.05;;;20.70;99.90;;;;;;5071015;28;20213;-54
2023/06/22 03:14:28;;;;;;;8.68;6.30;;;20.70;99.90;;;;;;5071012;28;20210;-54
2023/06/22 03:16:54;;;;;;;8.00;6.95;;;20.60;99.90;;;;;;5070921;28;20545;-55
2023/06/22 03:19:21;;;;;;;9.07;6.07;;;20.60;99.90;;;;;;5070812;28;20298;-54
2023/06/22 03:21:48;;;;;;;10.45;7.85;;;20.70;99.90;;;;;;5071217;28;20296;-55
2023/06/22 03:24:15;;;;;;;9.20;6.25;;;20.70;99.90;;;;;;5070905;28;20205;-54
2023/06/22 03:26:42;;;;;;;7.90;5.97;;;20.70;99.90;;;;;;5070505;28;20204;-54
2023/06/22 03:29:08;;;;;;;9.18;6.07;;;20.70;99.90;;;;;;5070652;28;20229;-56
2023/06/22 03:31:36;;;;;;;10.45;6.75;;;20.60;99.90;;;;;;5071210;28;20587;-54
2023/06/22 03:34:03;;;;;;;8.88;5.78;;;20.60;99.90;;;;;;5070815;28;20200;-55
2023/06/22 03:36:30;;;;;;;7.72;6.00;;;20.60;99.90;;;;;;5070833;28;20258;-54
2023/06/22 03:38:56;;;;;;;8.13;6.28;;;20.60;99.90;;;;;;5070789;28;20232;-53
2023/06/22 03:41:23;;;;;;;8.52;6.03;;;20.60;99.90;;;;;;5070962;28;20208;-54
2023/06/22 03:43:50;;;;;;;10.25;6.50;;;20.60;99.90;;;;;;5070765;28;20247;-54
2023/06/22 03:46:16;;;;;;;8.02;6.38;;;20.60;99.90;;;;;;5070686;28;20282;-55
2023/06/22 03:48:45;;;;;;;10.15;5.60;;;20.60;99.90;;;;;;5070389;28;20637;-55
2023/06/22 03:51:12;;;;;;;9.75;6.18;;;20.50;99.90;;;;;;5070688;28;20283;-53
2023/06/22 03:53:39;;;;;;;8.30;6.07;;;20.50;99.90;;;;;;5070523;28;20544;-54
2023/06/22 03:56:06;;;;;;;8.98;6.68;;;20.60;99.90;;;;;;5070516;28;20296;-54
2023/06/22 03:58:33;;;;;;;8.07;6.13;;;20.60;99.90;;;;;;5070646;28;20239;-54
2023/06/22 04:01:00;;;;;;;9.70;6.28;;;20.60;99.90;;;;;;5070732;28;20809;-54
2023/06/22 04:03:27;;;;;;;9.25;6.43;;;20.70;99.90;;;;;;5071855;28;20236;-55
2023/06/22 04:05:55;;;;;;;10.27;6.05;;;20.70;99.90;;;;;;5074478;28;20201;-54
2023/06/22 04:08:22;;;;;;;7.78;6.47;;;20.80;99.90;;;;;;5074636;28;20228;-55
2023/06/22 04:10:49;;;;;;;7.80;6.05;;;21.00;99.90;;;;;;5074644;28;20255;-53
2023/06/22 04:13:16;;;;;;;8.52;6.00;;;21.10;99.90;;;;;;5074740;28;20204;-55
2023/06/22 04:15:42;;;;;;;9.73;6.38;;;21.20;99.90;;;;;;5074637;28;20213;-54
2023/06/22 04:18:09;;;;;;;11.13;6.10;;;21.40;99.90;;;;;;5074180;28;20229;-53
2023/06/22 04:20:36;;;;;;;7.82;6.35;;;21.60;99.90;;;;;;5074593;28;20208;-55
2023/06/22 04:23:04;;;;;;;7.55;5.93;;;21.70;99.90;;;;;;5074237;28;20215;-54
2023/06/22 04:25:31;;;;;;;8.57;6.20;;;21.90;99.90;;;;;;5074115;28;20216;-54
2023/06/22 04:27:57;;;;;;;9.18;5.63;;;22.10;99.90;;;;;;5073739;28;20778;-53
2023/06/22 04:30:24;;;;;;;8.18;6.05;;;22.30;99.90;;;;;;5074003;28;20618;-55
2023/06/22 04:32:57;;;;;;;9.93;8.30;;;22.50;99.90;;;;;;5074084;28;20219;-54
2023/06/22 04:35:24;;;;;;;10.02;6.45;;;22.60;99.90;;;;;;5073928;28;20677;-56
2023/06/22 04:37:54;;;;;;;9.82;6.50;;;22.90;99.90;;;;;;5073417;28;20749;-54
2023/06/22 04:40:23;;;;;;;6.95;5.72;;;23.00;99.90;;;;;;5073793;28;20292;-54
2023/06/22 04:42:53;;;;;;;11.65;7.05;;;23.30;99.90;;;;;;5073920;28;20205;-53
2023/06/22 04:45:21;;;;;;;9.40;6.30;;;23.50;99.90;;;;;;5073961;28;20216;-54
2023/06/22 04:47:47;;;;;;;10.38;6.28;;;23.90;99.90;;;;;;5073312;28;20228;-55
2023/06/22 04:50:14;;;;;;;9.55;6.32;;;24.50;99.90;;;;;;5073641;28;20211;-55
2023/06/22 04:52:41;;;;;;;10.02;5.90;;;25.40;99.90;;;;;;5073498;28;20201;-54
2023/06/22 04:55:08;;;;;;;10.57;6.50;;;26.20;99.90;;;;;;5073475;28;20740;-54
2023/06/22 04:57:39;;;;;;;9.38;6.32;;;27.00;99.90;;;;;;5073334;28;20312;-54
2023/06/22 05:00:12;;;;;;;12.18;5.95;;;27.70;99.90;;;;;;5073612;28;20221;-54
2023/06/22 05:02:39;;;;;;;7.68;5.47;;;28.40;99.90;;;;;;5073329;28;20299;-56
2023/06/22 05:05:07;;;;;;;8.25;5.75;;;28.90;99.90;;;;;;5073358;28;20563;-54
2023/06/22 05:07:34;;;;;;;7.60;5.07;;;29.50;99.90;;;;;;5073255;28;20224;-54
2023/06/22 05:10:01;;;;;;;7.45;5.47;;;30.10;99.90;;;;;;5073399;28;20246;-53
2023/06/22 05:12:29;;;;;;;8.65;5.60;;;30.50;99.90;;;;;;5073337;28;20227;-55
2023/06/22 05:14:58;;;;;;;9.30;6.88;;;30.80;99.90;;;;;;5072428;28;20209;-54
2023/06/22 05:17:25;;;;;;;7.40;5.03;;;30.90;99.90;;;;;;5072790;28;20232;-53
2023/06/22 05:19:51;;;;;;;8.65;4.97;;;31.30;99.90;;;;;;5072773;28;20228;-54
2023/06/22 05:22:18;;;;;;;7.50;4.60;;;31.90;99.90;;;;;;5073502;28;20212;-54
2023/06/22 05:24:46;;;;;;;6.75;5.10;;;32.60;99.90;;;;;;5073183;28;20208;-55
2023/06/22 05:27:13;;;;;;;5.35;4.68;;;33.20;99.90;;;;;;5072581;28;20393;-53
2023/06/22 05:29:40;;;;;;;5.55;4.35;;;33.70;99.10;;;;;;5073228;28;20208;-53
2023/06/22 05:32:09;;;;;;;6.35;4.55;;;34.20;97.20;;;;;;5072784;28;20211;-54
2023/06/22 05:34:35;;;;;;;7.15;4.47;;;34.30;96.60;;;;;;5073169;28;20204;-55
2023/06/22 05:37:03;;;;;;;5.57;4.65;;;34.60;95.90;;;;;;5072882;28;20212;-55
2023/06/22 05:39:30;;;;;;;5.40;4.53;;;35.00;94.20;;;;;;5072920;28;20225;-54
2023/06/22 05:41:56;;;;;;;9.10;4.60;;;35.10;92.70;;;;;;5072876;28;20209;-54
2023/06/22 05:44:23;;;;;;;8.32;5.15;;;34.50;93.10;;;;;;5072992;28;20231;-54
2023/06/22 05:46:50;;;;;;;8.55;4.45;;;34.10;93.60;;;;;;5072563;28;20220;-54
2023/06/22 05:49:18;;;;;;;7.65;4.38;;;34.10;93.60;;;;;;5072735;28;20572;-53
2023/06/22 05:51:45;;;;;;;5.15;4.50;;;34.30;93.10;;;;;;5072594;28;20208;-54
2023/06/22 05:54:13;;;;;;;6.43;4.15;;;34.70;92.20;;;;;;5072644;28;20208;-53
2023/06/22 05:56:40;;;;;;;5.07;4.05;;;35.00;91.50;;;;;;5072155;28;20209;-53
2023/06/22 05:59:06;;;;;;;5.22;4.22;;;35.30;90.50;;;;;;5072392;28;20224;-54
2023/06/22 06:01:35;;;;;;;6.57;4.68;;;35.80;89.50;;;;;;5072344;28;20219;-53
2023/06/22 06:04:03;;;;;;;7.07;4.60;;;36.30;86.30;;;;;;5072578;28;20205;-53
2023/06/22 06:06:31;;;;;;;4.72;3.90;;;36.30;85.10;;;;;;5072177;28;20281;-53
2023/06/22 06:08:59;;;;;;;5.80;4.10;;;36.50;84.60;;;;;;5072370;28;20439;-53
2023/06/22 06:11:26;;;;;;;6.20;4.60;;;36.90;83.80;;;;;;5072053;28;20240;-54
2023/06/22 06:13:52;;;;;;;7.18;4.20;;;37.30;80.70;;;;;;5072217;28;20209;-55
2023/06/22 06:16:19;;;;;;;5.07;4.10;;;37.50;80.30;;;;;;5071953;28;20213;-53
2023/06/22 06:18:46;;;;;;;6.20;4.25;;;38.00;78.70;;;;;;5071953;28;20221;-53
2023/06/22 06:21:12;;;;;;;4.00;3.53;;;38.60;75.60;;;;;;5072017;28;20205;-53
2023/06/22 06:23:40;;;;;;;8.13;4.20;;;38.40;74.40;;;;;;5072005;28;20212;-54
2023/06/22 06:26:07;;;;;;;4.72;3.72;;;37.70;75.20;;;;;;5071630;28;20204;-56
2023/06/22 06:28:34;;;;;;;7.65;3.95;;;37.00;76.80;;;;;;5071097;28;20236;-54
2023/06/22 06:31:00;;;;;;;6.32;3.78;;;36.40;78.10;;;;;;5067595;28;20476;-61
2023/06/22 06:33:27;;;;;;;8.93;3.88;;;35.60;79.10;;;;;;5071861;28;20216;-55
2023/06/22 06:35:55;;;;;;;6.65;4.47;;;35.00;81.50;;;;;;5071230;28;20209;-53
2023/06/22 06:38:22;;;;;;;4.82;3.90;;;34.60;83.00;;;;;;5071022;28;20232;-52
2023/06/22 06:40:50;;;;;;;5.53;3.67;;;34.40;83.50;;;;;;5071078;28;20215;-52
2023/06/22 06:43:17;;;;;;;4.95;3.90;;;34.40;83.60;;;;;;5071334;28;20208;-55
2023/06/22 06:45:43;;;;;;;9.98;4.20;;;34.90;82.80;;;;;;5071624;28;20243;-54
2023/06/22 06:48:10;;;;;;;5.55;3.83;;;35.60;80.80;;;;;;5071352;28;20579;-52
2023/06/22 06:50:37;;;;;;;4.60;3.90;;;36.60;78.50;;;;;;5071311;28;20237;-53
2023/06/22 06:53:05;;;;;;;5.65;3.80;;;37.30;75.40;;;;;;5071365;28;20205;-54
2023/06/22 06:55:32;;;;;;;5.40;3.75;;;37.90;73.30;;;;;;5071053;28;20211;-55
2023/06/22 06:58:09;;;;;;;6.35;3.95;;;38.60;71.20;;;;;;5129073;27;20555;-54
2023/06/22 07:00:36;;;;;;;6.30;3.80;;;39.30;68.80;;;;;;5111279;27;20210;-52
2023/06/22 07:03:03;;;;;;;5.80;3.90;;;39.70;67.30;;;;;;5108276;28;20208;-50
2023/06/22 07:05:30;;;;;;;5.32;3.92;;;39.70;66.30;;;;;;5108465;28;20212;-52
2023/06/22 07:07:56;;;;;;;5.63;3.92;;;39.10;67.10;;;;;;5108087;28;20227;-52
2023/06/22 07:10:23;;;;;;;4.80;4.03;;;38.80;67.50;;;;;;5109056;28;20283;-51
2023/06/22 07:12:50;;;;;;;5.60;3.50;;;39.20;66.80;;;;;;5108680;28;20199;-52
2023/06/22 07:15:18;;;;;;;6.47;3.40;;;39.60;66.20;;;;;;5108679;28;20289;-51
2023/06/22 07:17:44;;;;;;;5.00;3.83;;;40.30;64.30;;;;;;5108450;28;20250;-52
2023/06/22 07:20:13;;;;;;;6.43;3.55;;;41.10;62.00;;;;;;5108779;28;20211;-52
2023/06/22 07:22:40;;;;;;;7.63;3.70;;;41.40;60.50;;;;;;5108594;28;20213;-51
2023/06/22 07:25:09;;;;;;;6.93;3.67;;;42.00;59.70;;;;;;5108905;28;20211;-52
2023/06/22 07:27:38;;;;;;;5.28;3.42;;;42.50;57.90;;;;;;5108192;28;20246;-52
2023/06/22 07:30:06;;;;;;;7.40;4.00;;;42.70;58.40;;;;;;5108303;28;20347;-53
2023/06/22 07:32:34;;;;;;;4.13;3.40;;;42.70;56.80;;;;;;5108361;28;20737;-56
2023/06/22 07:35:01;;;;;;;7.03;3.30;;;42.90;55.80;;;;;;5108235;28;20211;-57
2023/06/22 07:37:29;;;;;;;5.70;3.15;;;42.40;56.30;;;;;;5107821;28;20227;-57
2023/06/22 07:39:58;;;;;;;4.45;3.38;;;42.00;56.50;;;;;;5107871;28;20214;-56
2023/06/22 07:42:25;;;;;;;5.80;3.08;;;42.00;56.10;;;;;;5108164;28;20264;-52
2023/06/22 07:44:51;;;;;;;5.13;3.13;;;41.90;56.00;;;;;;5108118;28;20203;-53
2023/06/22 07:47:19;;;;;;;8.38;3.15;;;41.70;56.30;;;;;;5107736;28;20280;-52
2023/06/22 07:49:47;;;;;;;4.93;3.65;;;41.90;56.30;;;;;;5107624;28;20249;-52
2023/06/22 07:52:14;;;;;;;5.97;3.50;;;42.40;55.70;;;;;;5107915;28;20207;-52
2023/06/22 07:54:40;;;;;;;8.65;3.13;;;42.70;54.20;;;;;;5108104;28;20211;-52
2023/06/22 07:57:07;;;;;;;7.88;3.85;;;42.50;54.00;;;;;;5107773;28;20231;-55
2023/06/22 07:59:34;;;;;;;4.32;3.20;;;42.00;54.60;;;;;;5108020;28;20286;-52
2023/06/22 08:02:03;;;;;;;5.53;3.42;;;41.80;54.90;;;;;;5108023;28;20210;-52
2023/06/22 08:04:30;;;;;;;4.93;3.22;;;41.80;54.80;;;;;;5107515;28;20708;-54
2023/06/22 08:06:59;;;;;;;5.80;3.17;;;42.10;54.80;;;;;;5107775;28;20203;-52
2023/06/22 08:09:25;;;;;;;5.78;3.33;;;42.10;53.80;;;;;;5094506;28;20230;-52
2023/06/22 08:11:52;;;;;;;5.95;3.10;;;41.70;53.80;;;;;;5094277;28;20207;-52
2023/06/22 08:14:19;;;;;;;4.50;3.03;;;41.30;54.70;;;;;;5094204;28;20214;-52
2023/06/22 08:16:46;;;;;;;3.95;3.05;;;41.40;55.00;;;;;;5093301;28;20741;-55
2023/06/22 08:19:13;;;;;;;6.18;3.30;;;41.60;54.40;;;;;;5094191;28;20219;-52
2023/06/22 08:21:39;;;;;;;4.85;3.20;;;41.20;54.50;;;;;;5094418;28;20302;-52
2023/06/22 08:24:08;;;;;;;4.95;3.20;;;41.10;54.50;;;;;;5093680;28;20667;-53
2023/06/22 08:26:36;;;;;;;6.93;3.25;;;41.30;54.30;;;;;;5093826;28;20204;-52
2023/06/22 08:29:03;;;;;;;8.25;3.20;;;41.90;53.40;;;;;;5093492;28;20276;-52
2023/06/22 08:31:30;;;;;;;10.93;3.38;;;42.10;53.00;;;;;;5093491;28;20235;-52
2023/06/22 08:33:57;;;;;;;6.45;3.17;;;41.90;52.80;;;;;;5093588;28;20551;-52
2023/06/22 08:36:24;;;;;;;7.68;3.35;;;41.70;53.60;;;;;;5093475;28;20208;-52
2023/06/22 08:38:51;;;;;;;10.93;3.15;;;41.80;53.20;;;;;;5093728;28;20247;-54
2023/06/22 08:41:19;;;;;;;6.45;3.30;;;42.30;52.40;;;;;;5093249;28;20203;-51
2023/06/22 08:43:47;;;;;;;7.28;3.53;;;42.40;52.00;;;;;;5093311;28;20290;-51
2023/06/22 08:46:13;;;;;;;7.05;3.40;;;42.10;52.00;;;;;;5093450;28;20204;-52
2023/06/22 08:48:40;;;;;;;6.10;3.40;;;41.80;52.10;;;;;;5093594;28;20227;-51
2023/06/22 08:51:07;;;;;;;7.32;3.53;;;41.90;51.90;;;;;;5093572;28;20671;-53
2023/06/22 08:53:34;;;;;;;6.70;3.40;;;41.80;51.90;;;;;;5093039;28;20612;-52
2023/06/22 08:56:01;;;;;;;4.68;2.95;;;41.30;52.70;;;;;;5093104;28;20216;-53
2023/06/22 08:58:29;;;;;;;4.22;3.15;;;40.90;53.20;;;;;;5093151;28;20228;-52
2023/06/22 09:00:56;;;;;;;7.82;3.50;;;40.50;54.00;;;;;;5093315;28;20261;-56
2023/06/22 09:03:26;;;;;;;7.85;3.38;;;40.00;54.30;;;;;;5093711;28;20489;-55
2023/06/22 09:05:53;;;;;;;9.00;3.47;;;39.30;55.90;;;;;;5092910;28;20691;-58
2023/06/22 09:08:19;;;;;;;8.95;4.07;;;38.50;57.10;;;;;;5093154;28;20645;-53
2023/06/22 09:10:46;;;;;;;6.80;3.60;;;37.90;58.00;;;;;;5093568;28;20204;-54
2023/06/22 09:13:13;;;;;;;6.45;3.58;;;37.40;58.90;;;;;;5092575;28;20204;-53
2023/06/22 09:15:41;;;;;;;7.47;3.80;;;37.10;59.70;;;;;;5093023;28;20299;-61
2023/06/22 09:18:11;;;;;;;8.27;3.83;;;36.90;59.70;;;;;;5092916;28;20239;-56
2023/06/22 09:20:37;;;;;;;8.85;4.00;;;36.70;60.60;;;;;;5092196;28;20200;-55
2023/06/22 09:23:04;;;;;;;8.48;4.15;;;36.50;61.10;;;;;;5092948;28;20208;-53
2023/06/22 09:25:31;;;;;;;8.65;3.83;;;36.10;62.10;;;;;;5092953;28;20287;-53
2023/06/22 09:27:58;;;;;;;10.27;3.97;;;35.60;64.00;;;;;;5084747;28;20299;-53
2023/06/22 09:30:24;;;;;;;8.88;3.75;;;35.10;64.90;;;;;;5092312;28;20197;-53
2023/06/22 09:32:52;;;;;;;7.68;3.45;;;34.90;65.40;;;;;;5092645;28;20204;-53
2023/06/22 09:35:19;;;;;;;6.80;3.85;;;34.80;65.90;;;;;;5092379;28;20295;-53
2023/06/22 09:37:46;;;;;;;8.35;3.78;;;35.00;66.40;;;;;;5092034;28;20232;-54
2023/06/22 09:40:16;;;;;;;8.27;3.90;;;34.90;67.60;;;;;;5092254;28;20266;-53
2023/06/22 09:42:43;;;;;;;6.75;4.10;;;34.60;68.60;;;;;;5091593;28;20702;-53
2023/06/22 09:45:10;;;;;;;18.63;4.32;;;34.40;68.80;;;;;;5092411;28;20679;-52
2023/06/22 09:47:37;;;;;;;7.47;3.58;;;34.10;69.10;;;;;;5092008;28;20654;-54
2023/06/22 09:50:07;;;;;;;9.13;3.47;;;34.00;69.60;;;;;;5093799;28;20208;-53
2023/06/22 09:52:33;;;;;;;6.97;3.88;;;34.00;70.20;;;;;;5092870;28;20211;-53
2023/06/22 09:55:01;;;;;;;7.35;4.07;;;34.10;70.00;;;;;;5092227;28;20212;-53
2023/06/22 09:57:27;;;;;;;8.55;3.97;;;34.10;69.90;;;;;;5112392;28;20224;-53
2023/06/22 09:59:54;;;;;;;9.23;3.83;;;34.00;70.00;;;;;;5113434;28;20207;-53
2023/06/22 10:02:22;;;;;;;10.77;3.97;;;34.00;70.50;;;;;;5113355;28;20223;-53
2023/06/22 10:04:49;;;;;;;8.05;3.90;;;34.00;70.80;;;;;;5112923;28;20211;-52
2023/06/22 10:07:17;;;;;;;10.02;4.00;;;33.80;71.50;;;;;;5112147;28;20211;-54
2023/06/22 10:09:44;;;;;;;9.27;4.13;;;33.50;72.40;;;;;;5112852;28;20294;-54
2023/06/22 10:12:11;;;;;;;8.95;4.00;;;33.40;72.90;;;;;;5111995;28;20203;-53
2023/06/22 10:14:37;;;;;;;8.85;4.05;;;33.60;72.60;;;;;;5112310;27;20204;-54
2023/06/22 10:17:07;;;;;;;8.38;4.20;;;33.40;72.80;;;;;;5111721;28;20691;-54
2023/06/22 10:19:33;;;;;;;6.93;4.10;;;33.30;72.90;;;;;;5112308;28;20199;-54
2023/06/22 10:22:00;;;;;;;7.88;4.03;;;33.50;72.80;;;;;;5112098;28;20207;-53
2023/06/22 10:24:28;;;;;;;8.20;4.13;;;33.80;72.30;;;;;;5112288;28;20320;-53
2023/06/22 10:26:55;;;;;;;8.85;4.05;;;33.90;72.10;;;;;;5112430;28;20235;-53
2023/06/22 10:29:22;;;;;;;11.57;4.32;;;34.10;71.40;;;;;;5111941;28;20223;-54
2023/06/22 10:31:48;;;;;;;6.15;3.78;;;34.40;70.20;;;;;;5111583;28;20694;-54
2023/06/22 10:34:15;;;;;;;9.30;4.00;;;34.70;69.40;;;;;;5112108;28;20232;-54
2023/06/22 10:36:42;;;;;;;9.13;4.10;;;35.10;68.50;;;;;;5111658;28;20698;-56
2023/06/22 10:39:08;;;;;;;9.55;3.83;;;35.20;68.50;;;;;;5096045;28;20232;-56
2023/06/22 10:41:37;;;;;;;8.55;4.20;;;35.40;68.40;;;;;;5091335;28;20672;-55
2023/06/22 10:44:04;;;;;;;9.40;3.95;;;35.70;67.30;;;;;;5089840;28;20617;-52
2023/06/22 10:46:31;;;;;;;11.18;4.78;;;35.90;67.00;;;;;;5090659;28;20226;-57
2023/06/22 10:48:58;;;;;;;7.32;3.63;;;36.10;66.70;;;;;;5091571;28;20231;-52
2023/06/22 10:51:25;;;;;;;6.13;3.55;;;36.00;66.80;;;;;;5091440;28;20208;-56
2023/06/22 10:53:52;;;;;;;12.77;4.30;;;35.80;67.30;;;;;;5089363;28;20208;-59
2023/06/22 10:56:19;;;;;;;11.80;4.25;;;35.90;65.90;;;;;;5090228;28;20280;-57
2023/06/22 10:58:47;;;;;;;11.77;4.38;;;35.90;65.30;;;;;;5090540;28;20655;-57
2023/06/22 11:01:14;;;;;;;9.18;4.18;;;35.80;65.20;;;;;;5090638;28;20204;-56
2023/06/22 11:03:41;;;;;;;6.15;3.72;;;35.70;64.80;;;;;;5089417;28;20235;-58
2023/06/22 11:06:07;;;;;;;7.53;3.90;;;35.80;65.70;;;;;;5090300;28;20208;-55
2023/06/22 11:08:34;;;;;;;11.88;4.15;;;35.90;65.00;;;;;;5091305;28;20223;-57
2023/06/22 11:11:01;;;;;;;11.00;3.90;;;36.10;65.10;;;;;;5090685;28;20219;-56
2023/06/22 11:13:27;;;;;;;9.25;4.30;;;36.20;64.60;;;;;;5089730;28;20204;-58
2023/06/22 11:15:55;;;;;;;11.10;4.53;;;36.10;64.10;;;;;;5090830;28;20200;-56
2023/06/22 11:18:23;;;;;;;13.15;3.90;;;36.00;65.00;;;;;;5090420;28;20285;-55
2023/06/22 11:20:49;;;;;;;8.95;3.58;;;36.00;65.10;;;;;;5091148;28;20231;-56
2023/06/22 11:23:16;;;;;;;7.75;3.97;;;36.00;66.40;;;;;;5090938;28;20687;-56
2023/06/22 11:25:43;;;;;;;10.60;4.10;;;36.00;66.00;;;;;;5091019;28;20204;-55
2023/06/22 11:28:10;;;;;;;10.00;4.07;;;36.00;66.50;;;;;;5090097;28;20216;-59
2023/06/22 11:30:36;;;;;;;14.07;4.68;;;35.80;66.90;;;;;;5090905;28;20639;-59
2023/06/22 11:33:04;;;;;;;12.82;4.40;;;35.80;67.30;;;;;;5091637;28;20633;-59
2023/06/22 11:35:31;;;;;;;10.90;4.10;;;35.80;64.90;;;;;;5090935;28;20223;-57
2023/06/22 11:37:58;;;;;;;8.48;3.67;;;35.90;65.20;;;;;;5090472;28;20664;-57
2023/06/22 11:40:24;;;;;;;11.95;3.78;;;36.00;65.10;;;;;;5091005;28;20243;-57
2023/06/22 11:42:51;;;;;;;11.15;4.35;;;36.30;63.60;;;;;;5090644;28;20610;-55
2023/06/22 11:45:20;;;;;;;13.00;4.00;;;36.60;62.60;;;;;;5094699;28;20212;-56
2023/06/22 11:47:47;;;;;;;9.95;4.18;;;36.80;62.00;;;;;;5094598;28;20216;-56
2023/06/22 11:50:15;;;;;;;11.48;3.75;;;36.90;61.60;;;;;;5094648;28;20208;-55
2023/06/22 11:52:42;;;;;;;9.85;3.90;;;36.90;61.60;;;;;;5094754;28;20253;-56
2023/06/22 11:55:09;;;;;;;9.60;4.32;;;36.90;61.90;;;;;;5092401;28;20580;-52
2023/06/22 11:57:37;;;;;;;15.15;4.25;;;36.90;61.60;;;;;;5094262;28;20583;-53
2023/06/22 12:00:14;;;;;;;10.30;3.97;;;37.00;62.20;;;;;;5094678;28;20208;-52
2023/06/22 12:02:41;;;;;;;10.80;4.13;;;37.00;61.80;;;;;;5095203;28;20200;-51
2023/06/22 12:05:08;;;;;;;8.68;4.18;;;37.00;62.10;;;;;;5094874;28;20556;-53
2023/06/22 12:07:37;;;;;;;13.35;4.43;;;37.00;62.10;;;;;;5094301;28;20734;-53
2023/06/22 12:10:05;;;;;;;11.65;4.20;;;37.00;61.70;;;;;;5094572;28;20204;-52
2023/06/22 12:12:31;;;;;;;11.18;4.05;;;36.90;61.90;;;;;;5095263;28;20207;-57
2023/06/22 12:15:03;;;;;;;11.55;4.43;;;36.80;62.10;;;;;;5092877;28;20299;-56
2023/06/22 12:17:29;;;;;;;10.00;4.10;;;36.70;62.50;;;;;;5091108;28;20615;-59
2023/06/22 12:19:56;;;;;;;15.20;4.45;;;36.60;63.70;;;;;;5094029;28;20684;-60
2023/06/22 12:22:23;;;;;;;11.27;4.15;;;36.70;64.80;;;;;;5093298;28;20208;-58
2023/06/22 12:24:51;;;;;;;10.82;4.30;;;36.70;64.90;;;;;;5093028;28;20204;-59
2023/06/22 12:27:18;;;;;;;10.70;4.45;;;36.50;66.20;;;;;;5092114;28;20257;-62
2023/06/22 12:29:47;;;;;;;10.38;4.38;;;36.50;66.90;;;;;;5093700;28;20196;-59
2023/06/22 12:32:14;;;;;;;8.80;4.30;;;36.20;67.20;;;;;;5092402;28;20305;-58
2023/06/22 12:34:42;;;;;;;12.07;4.32;;;36.10;67.60;;;;;;5094268;28;20283;-57
2023/06/22 12:37:09;;;;;;;11.43;5.00;;;36.00;68.20;;;;;;5093422;28;20204;-55
2023/06/22 12:39:36;;;;;;;10.65;4.35;;;35.90;69.30;;;;;;5092523;28;20231;-53
2023/06/22 12:42:05;;;;;;;11.05;4.40;;;35.80;70.00;;;;;;5094397;28;20615;-53
2023/06/22 12:44:32;;;;;;;9.75;4.88;;;35.50;70.80;;;;;;5093281;28;20212;-57
2023/06/22 12:46:58;;;;;;;11.50;4.18;;;35.40;71.60;;;;;;5093330;28;20208;-54